DLH71X EDDF-LFMN
Flight info
| Callsign | DLH71X |
|---|---|
| Flight time | 1h 12m |
| Altitude | 31000 |
| Route | ANEKI2L ANEKI Y163 NATOR/N0446F370 DCT TRA DCT RIPUS DCT GERSA DCT SOSON DCT ODINA DCT ENOBA/N0368F190 Z185 BORDI |
| Aircraft | A319/M-SDE2E3FGILORWXYZ/HB1 |
Departure
| Time | 2026-05-07 17:54 |
|---|---|
| Airport | Frankfurt Main Airport (EDDF) |
Arrival
| Time | 2026-05-07 19:06 |
|---|---|
| Airport | Nice-Côte d'Azur Airport (LFMN) |
| Time | Latitude | Longitude | Altitude | Speed | Heading |
|---|---|---|---|---|---|
| 2026-05-07 17:02 | 50.05015 | 8.57523 | 356 ft | 0 kts | 21° |
| 2026-05-07 17:40 | 50.04992 | 8.57511 | 359 ft | 4 kts | 8° |
| 2026-05-07 17:40 | 50.04969 | 8.57513 | 356 ft | 2 kts | 342° |
| 2026-05-07 17:40 | 50.04950 | 8.57518 | 356 ft | 4 kts | 39° |
| 2026-05-07 17:40 | 50.04943 | 8.57488 | 360 ft | 4 kts | 98° |
| 2026-05-07 17:41 | 50.04943 | 8.57483 | 359 ft | 4 kts | 106° |
| 2026-05-07 17:41 | 50.04935 | 8.57523 | 364 ft | 4 kts | 107° |
| 2026-05-07 17:41 | 50.04930 | 8.57545 | 356 ft | 0 kts | 114° |
| 2026-05-07 17:44 | 50.04928 | 8.57550 | 356 ft | 2 kts | 114° |
| 2026-05-07 17:45 | 50.04910 | 8.57614 | 359 ft | 11 kts | 115° |
| 2026-05-07 17:45 | 50.04875 | 8.57736 | 359 ft | 12 kts | 112° |
| 2026-05-07 17:45 | 50.04842 | 8.57861 | 363 ft | 13 kts | 116° |
| 2026-05-07 17:45 | 50.04792 | 8.57911 | 359 ft | 9 kts | 160° |
| 2026-05-07 17:46 | 50.04723 | 8.57912 | 358 ft | 11 kts | 207° |
| 2026-05-07 17:46 | 50.04686 | 8.57810 | 362 ft | 11 kts | 249° |
| 2026-05-07 17:46 | 50.04657 | 8.57689 | 361 ft | 14 kts | 249° |
| 2026-05-07 17:46 | 50.04616 | 8.57519 | 358 ft | 20 kts | 250° |
| 2026-05-07 17:47 | 50.04560 | 8.57283 | 357 ft | 26 kts | 250° |
| 2026-05-07 17:47 | 50.04495 | 8.57008 | 360 ft | 27 kts | 249° |
| 2026-05-07 17:47 | 50.04430 | 8.56740 | 359 ft | 27 kts | 249° |
| 2026-05-07 17:47 | 50.04364 | 8.56465 | 360 ft | 28 kts | 249° |
| 2026-05-07 17:48 | 50.04296 | 8.56184 | 361 ft | 28 kts | 249° |
| 2026-05-07 17:48 | 50.04229 | 8.55898 | 354 ft | 28 kts | 249° |
| 2026-05-07 17:48 | 50.04159 | 8.55607 | 356 ft | 29 kts | 249° |
| 2026-05-07 17:48 | 50.04089 | 8.55316 | 356 ft | 28 kts | 249° |
| 2026-05-07 17:49 | 50.04021 | 8.55031 | 360 ft | 28 kts | 250° |
| 2026-05-07 17:49 | 50.03953 | 8.54742 | 353 ft | 29 kts | 249° |
| 2026-05-07 17:49 | 50.03886 | 8.54462 | 350 ft | 18 kts | 249° |
| 2026-05-07 17:49 | 50.03821 | 8.54285 | 350 ft | 20 kts | 233° |
| 2026-05-07 17:50 | 50.03767 | 8.54086 | 344 ft | 21 kts | 249° |
| 2026-05-07 17:50 | 50.03715 | 8.53872 | 349 ft | 22 kts | 249° |
| 2026-05-07 17:50 | 50.03660 | 8.53647 | 350 ft | 23 kts | 249° |
| 2026-05-07 17:50 | 50.03603 | 8.53414 | 339 ft | 24 kts | 250° |
| 2026-05-07 17:51 | 50.03544 | 8.53169 | 334 ft | 25 kts | 249° |
| 2026-05-07 17:51 | 50.03485 | 8.52926 | 335 ft | 14 kts | 249° |
| 2026-05-07 17:51 | 50.03445 | 8.52779 | 333 ft | 15 kts | 249° |
| 2026-05-07 17:51 | 50.03406 | 8.52618 | 335 ft | 13 kts | 249° |
| 2026-05-07 17:52 | 50.03361 | 8.52594 | 332 ft | 8 kts | 169° |
| 2026-05-07 17:52 | 50.03347 | 8.52594 | 336 ft | 0 kts | 180° |
| 2026-05-07 17:52 | 50.03346 | 8.52594 | 336 ft | 0 kts | 180° |
| 2026-05-07 17:53 | 50.03326 | 8.52594 | 336 ft | 15 kts | 180° |
| 2026-05-07 17:53 | 50.02931 | 8.52600 | 336 ft | 94 kts | 179° |
| 2026-05-07 17:53 | 50.02060 | 8.52608 | 336 ft | 154 kts | 179° |
| 2026-05-07 17:53 | 50.00941 | 8.52617 | 827 ft | 162 kts | 179° |
| 2026-05-07 17:54 | 49.99807 | 8.52665 | 1434 ft | 163 kts | 176° |
| 2026-05-07 17:54 | 49.98668 | 8.52743 | 2101 ft | 165 kts | 177° |
| 2026-05-07 17:54 | 49.97517 | 8.52827 | 2761 ft | 166 kts | 177° |
| 2026-05-07 17:54 | 49.96367 | 8.52911 | 3397 ft | 166 kts | 178° |
| 2026-05-07 17:55 | 49.95167 | 8.52995 | 3831 ft | 182 kts | 178° |
| 2026-05-07 17:55 | 49.93820 | 8.53086 | 4161 ft | 205 kts | 178° |
| 2026-05-07 17:55 | 49.92299 | 8.53188 | 4521 ft | 231 kts | 178° |
| 2026-05-07 17:55 | 49.90658 | 8.53301 | 5274 ft | 239 kts | 179° |
| 2026-05-07 17:56 | 49.88982 | 8.53418 | 6206 ft | 242 kts | 179° |
| 2026-05-07 17:56 | 49.87293 | 8.53535 | 7121 ft | 244 kts | 179° |
| 2026-05-07 17:56 | 49.85604 | 8.53652 | 8017 ft | 247 kts | 179° |
| 2026-05-07 17:56 | 49.83875 | 8.53770 | 8921 ft | 250 kts | 179° |
| 2026-05-07 17:57 | 49.82117 | 8.53863 | 9714 ft | 260 kts | 182° |
| 2026-05-07 17:57 | 49.80853 | 8.53833 | 9998 ft | 276 kts | 184° |
| 2026-05-07 17:57 | 49.78178 | 8.53647 | 10458 ft | 307 kts | 185° |
| 2026-05-07 17:57 | 49.75967 | 8.53477 | 10856 ft | 326 kts | 184° |
| 2026-05-07 17:58 | 49.73669 | 8.53332 | 11573 ft | 333 kts | 184° |
| 2026-05-07 17:58 | 49.71334 | 8.53205 | 12375 ft | 338 kts | 183° |
| 2026-05-07 17:58 | 49.68969 | 8.53088 | 13185 ft | 342 kts | 183° |
| 2026-05-07 17:58 | 49.66573 | 8.52977 | 13976 ft | 346 kts | 183° |
| 2026-05-07 17:59 | 49.64159 | 8.52867 | 14679 ft | 350 kts | 183° |
| 2026-05-07 17:59 | 49.61714 | 8.52757 | 15393 ft | 353 kts | 183° |
| 2026-05-07 17:59 | 49.59245 | 8.52644 | 16107 ft | 356 kts | 183° |
| 2026-05-07 17:59 | 49.56755 | 8.52527 | 16799 ft | 360 kts | 184° |
| 2026-05-07 18:00 | 49.54239 | 8.52407 | 17500 ft | 363 kts | 184° |
| 2026-05-07 18:00 | 49.51701 | 8.52286 | 18199 ft | 367 kts | 184° |
| 2026-05-07 18:00 | 49.49136 | 8.52160 | 18812 ft | 371 kts | 184° |
| 2026-05-07 18:00 | 49.46547 | 8.52030 | 19412 ft | 374 kts | 184° |
| 2026-05-07 18:01 | 49.43938 | 8.51900 | 20016 ft | 377 kts | 184° |
| 2026-05-07 18:01 | 49.41331 | 8.51770 | 20615 ft | 380 kts | 184° |
| 2026-05-07 18:01 | 49.38677 | 8.51639 | 21222 ft | 384 kts | 184° |
| 2026-05-07 18:01 | 49.35960 | 8.51505 | 21822 ft | 387 kts | 184° |
| 2026-05-07 18:02 | 49.30559 | 8.51244 | 22980 ft | 395 kts | 184° |
| 2026-05-07 18:02 | 49.27798 | 8.51113 | 23549 ft | 398 kts | 184° |
| 2026-05-07 18:02 | 49.25020 | 8.50982 | 24019 ft | 402 kts | 184° |
| 2026-05-07 18:03 | 49.22212 | 8.50848 | 24494 ft | 405 kts | 184° |
| 2026-05-07 18:03 | 49.19386 | 8.50712 | 24972 ft | 407 kts | 184° |
| 2026-05-07 18:03 | 49.16545 | 8.50576 | 25433 ft | 410 kts | 184° |
| 2026-05-07 18:03 | 49.13689 | 8.50442 | 25877 ft | 413 kts | 184° |
| 2026-05-07 18:04 | 49.10804 | 8.50308 | 26315 ft | 416 kts | 184° |
| 2026-05-07 18:04 | 49.07899 | 8.50170 | 26745 ft | 419 kts | 184° |
| 2026-05-07 18:04 | 49.04972 | 8.50031 | 27169 ft | 422 kts | 184° |
| 2026-05-07 18:04 | 49.02025 | 8.49889 | 27589 ft | 425 kts | 184° |
| 2026-05-07 18:05 | 48.99064 | 8.49743 | 28003 ft | 428 kts | 184° |
| 2026-05-07 18:05 | 48.96071 | 8.49596 | 28441 ft | 431 kts | 184° |
| 2026-05-07 18:05 | 48.93066 | 8.49453 | 28856 ft | 434 kts | 184° |
| 2026-05-07 18:05 | 48.90035 | 8.49310 | 29256 ft | 437 kts | 184° |
| 2026-05-07 18:06 | 48.86986 | 8.49167 | 29643 ft | 440 kts | 184° |
| 2026-05-07 18:06 | 48.83908 | 8.49021 | 30029 ft | 443 kts | 184° |
| 2026-05-07 18:06 | 48.80818 | 8.48877 | 30357 ft | 446 kts | 184° |
| 2026-05-07 18:06 | 48.77703 | 8.48730 | 30679 ft | 449 kts | 184° |
| 2026-05-07 18:07 | 48.74575 | 8.48581 | 31011 ft | 450 kts | 185° |
| 2026-05-07 18:07 | 48.71438 | 8.48432 | 31350 ft | 452 kts | 185° |
| 2026-05-07 18:07 | 48.68286 | 8.48287 | 31660 ft | 454 kts | 184° |
| 2026-05-07 18:07 | 48.65128 | 8.48143 | 32050 ft | 454 kts | 185° |
| 2026-05-07 18:08 | 48.61976 | 8.47997 | 32491 ft | 453 kts | 185° |
| 2026-05-07 18:08 | 48.58825 | 8.47847 | 32927 ft | 452 kts | 185° |
| 2026-05-07 18:08 | 48.56748 | 8.47746 | 33221 ft | 451 kts | 185° |
| 2026-05-07 18:08 | 48.53616 | 8.47595 | 33673 ft | 450 kts | 185° |
| 2026-05-07 18:09 | 48.49473 | 8.47404 | 34244 ft | 449 kts | 185° |
| 2026-05-07 18:09 | 48.46356 | 8.47263 | 34616 ft | 448 kts | 185° |
| 2026-05-07 18:09 | 48.43248 | 8.47121 | 34975 ft | 447 kts | 185° |
| 2026-05-07 18:09 | 48.40141 | 8.46979 | 35313 ft | 446 kts | 185° |
| 2026-05-07 18:10 | 48.38043 | 8.46883 | 35539 ft | 445 kts | 185° |
| 2026-05-07 18:10 | 48.34993 | 8.46741 | 35868 ft | 445 kts | 185° |
| 2026-05-07 18:10 | 48.31905 | 8.46601 | 36179 ft | 444 kts | 185° |
| 2026-05-07 18:10 | 48.28826 | 8.46460 | 36496 ft | 442 kts | 185° |
| 2026-05-07 18:11 | 48.25751 | 8.46314 | 36795 ft | 442 kts | 185° |
| 2026-05-07 18:11 | 48.22633 | 8.46166 | 37017 ft | 442 kts | 185° |
| 2026-05-07 18:11 | 48.19569 | 8.46022 | 37065 ft | 439 kts | 185° |
| 2026-05-07 18:12 | 48.13515 | 8.45742 | 37060 ft | 438 kts | 185° |
| 2026-05-07 18:12 | 48.07431 | 8.45473 | 37061 ft | 437 kts | 185° |
| 2026-05-07 18:13 | 48.01360 | 8.45190 | 37060 ft | 436 kts | 185° |
| 2026-05-07 18:13 | 47.95291 | 8.44911 | 37060 ft | 436 kts | 185° |
| 2026-05-07 18:14 | 47.89220 | 8.44638 | 37042 ft | 436 kts | 185° |
| 2026-05-07 18:14 | 47.83153 | 8.44360 | 37055 ft | 436 kts | 186° |
| 2026-05-07 18:15 | 47.77091 | 8.44078 | 37054 ft | 436 kts | 186° |
| 2026-05-07 18:15 | 47.71022 | 8.43794 | 37039 ft | 436 kts | 186° |
| 2026-05-07 18:16 | 47.64936 | 8.44288 | 37032 ft | 440 kts | 178° |
| 2026-05-07 18:16 | 47.58842 | 8.45193 | 37036 ft | 440 kts | 178° |
| 2026-05-07 18:17 | 47.52751 | 8.46097 | 37037 ft | 440 kts | 178° |
| 2026-05-07 18:17 | 47.46658 | 8.47000 | 37023 ft | 440 kts | 179° |
| 2026-05-07 18:18 | 47.40617 | 8.47884 | 37034 ft | 439 kts | 179° |
| 2026-05-07 18:18 | 47.34538 | 8.48770 | 37038 ft | 439 kts | 179° |
| 2026-05-07 18:19 | 47.28458 | 8.49658 | 37042 ft | 439 kts | 179° |
| 2026-05-07 18:19 | 47.22382 | 8.50538 | 37034 ft | 438 kts | 179° |
| 2026-05-07 18:20 | 47.16315 | 8.51421 | 37036 ft | 438 kts | 179° |
| 2026-05-07 18:20 | 47.10249 | 8.52299 | 37044 ft | 438 kts | 179° |
| 2026-05-07 18:21 | 47.04185 | 8.53182 | 37025 ft | 438 kts | 179° |
| 2026-05-07 18:21 | 46.98123 | 8.54062 | 37030 ft | 438 kts | 179° |
| 2026-05-07 18:22 | 46.92106 | 8.54925 | 37035 ft | 437 kts | 179° |
| 2026-05-07 18:22 | 46.86028 | 8.55800 | 37044 ft | 438 kts | 179° |
| 2026-05-07 18:23 | 46.79986 | 8.56668 | 37030 ft | 437 kts | 180° |
| 2026-05-07 18:23 | 46.73933 | 8.57529 | 37046 ft | 437 kts | 180° |
| 2026-05-07 18:24 | 46.67881 | 8.58395 | 37016 ft | 436 kts | 180° |
| 2026-05-07 18:24 | 46.61833 | 8.59255 | 37027 ft | 437 kts | 179° |
| 2026-05-07 18:25 | 46.55782 | 8.60117 | 37038 ft | 437 kts | 179° |
| 2026-05-07 18:25 | 46.49747 | 8.60987 | 37033 ft | 435 kts | 179° |
| 2026-05-07 18:26 | 46.43720 | 8.61832 | 37037 ft | 435 kts | 180° |
| 2026-05-07 18:26 | 46.37687 | 8.62666 | 37007 ft | 436 kts | 179° |
| 2026-05-07 18:27 | 46.31648 | 8.63507 | 37003 ft | 436 kts | 180° |
| 2026-05-07 18:27 | 46.25655 | 8.64354 | 37000 ft | 435 kts | 179° |
| 2026-05-07 18:28 | 46.19636 | 8.65216 | 36987 ft | 434 kts | 180° |
| 2026-05-07 18:28 | 46.13628 | 8.66053 | 36993 ft | 434 kts | 180° |
| 2026-05-07 18:29 | 46.07691 | 8.65948 | 36998 ft | 422 kts | 193° |
| 2026-05-07 18:29 | 46.01876 | 8.64747 | 36990 ft | 422 kts | 193° |
| 2026-05-07 18:30 | 45.96061 | 8.63561 | 36997 ft | 422 kts | 193° |
| 2026-05-07 18:30 | 45.90247 | 8.62381 | 36998 ft | 422 kts | 193° |
| 2026-05-07 18:31 | 45.84480 | 8.61210 | 36995 ft | 422 kts | 193° |
| 2026-05-07 18:31 | 45.78669 | 8.60031 | 36991 ft | 421 kts | 193° |
| 2026-05-07 18:32 | 45.72871 | 8.58838 | 36996 ft | 421 kts | 193° |
| 2026-05-07 18:32 | 45.67082 | 8.57654 | 36986 ft | 420 kts | 193° |
| 2026-05-07 18:33 | 45.61290 | 8.56479 | 36984 ft | 420 kts | 193° |
| 2026-05-07 18:33 | 45.55508 | 8.55318 | 36989 ft | 419 kts | 193° |
| 2026-05-07 18:34 | 45.49732 | 8.54170 | 36988 ft | 419 kts | 193° |
| 2026-05-07 18:34 | 45.43966 | 8.53017 | 36997 ft | 418 kts | 193° |
| 2026-05-07 18:35 | 45.38203 | 8.51860 | 37009 ft | 418 kts | 193° |
| 2026-05-07 18:35 | 45.32445 | 8.50709 | 37012 ft | 418 kts | 193° |
| 2026-05-07 18:36 | 45.26726 | 8.49574 | 37012 ft | 417 kts | 193° |
| 2026-05-07 18:36 | 45.20980 | 8.48433 | 36997 ft | 417 kts | 193° |
| 2026-05-07 18:37 | 45.15246 | 8.47295 | 37001 ft | 416 kts | 193° |
| 2026-05-07 18:37 | 45.09517 | 8.46153 | 36991 ft | 415 kts | 193° |
| 2026-05-07 18:38 | 45.03799 | 8.45027 | 36972 ft | 415 kts | 194° |
| 2026-05-07 18:38 | 44.98084 | 8.43898 | 36980 ft | 414 kts | 194° |
| 2026-05-07 18:39 | 44.92388 | 8.42766 | 36984 ft | 413 kts | 194° |
| 2026-05-07 18:39 | 44.86688 | 8.41652 | 36963 ft | 413 kts | 194° |
| 2026-05-07 18:40 | 44.81000 | 8.40545 | 36985 ft | 412 kts | 194° |
| 2026-05-07 18:40 | 44.75364 | 8.39435 | 36993 ft | 411 kts | 194° |
| 2026-05-07 18:41 | 44.69696 | 8.38326 | 36992 ft | 411 kts | 194° |
| 2026-05-07 18:41 | 44.64032 | 8.37225 | 36997 ft | 410 kts | 194° |
| 2026-05-07 18:42 | 44.58377 | 8.36130 | 37002 ft | 410 kts | 194° |
| 2026-05-07 18:42 | 44.52729 | 8.35037 | 37006 ft | 410 kts | 194° |
| 2026-05-07 18:43 | 44.47086 | 8.33947 | 36890 ft | 410 kts | 194° |
| 2026-05-07 18:43 | 44.44265 | 8.33394 | 36626 ft | 408 kts | 194° |
| 2026-05-07 18:43 | 44.41455 | 8.32842 | 36367 ft | 408 kts | 194° |
| 2026-05-07 18:43 | 44.38643 | 8.32297 | 36111 ft | 408 kts | 194° |
| 2026-05-07 18:44 | 44.35827 | 8.31754 | 35858 ft | 408 kts | 194° |
| 2026-05-07 18:44 | 44.33014 | 8.31216 | 35608 ft | 408 kts | 195° |
| 2026-05-07 18:44 | 44.30217 | 8.30562 | 34965 ft | 404 kts | 201° |
| 2026-05-07 18:44 | 44.27631 | 8.29348 | 34460 ft | 394 kts | 208° |
| 2026-05-07 18:45 | 44.25094 | 8.27940 | 33887 ft | 391 kts | 208° |
| 2026-05-07 18:45 | 44.22565 | 8.26545 | 33297 ft | 389 kts | 208° |
| 2026-05-07 18:45 | 44.20066 | 8.25170 | 32748 ft | 385 kts | 208° |
| 2026-05-07 18:45 | 44.17588 | 8.23804 | 32200 ft | 381 kts | 208° |
| 2026-05-07 18:46 | 44.15132 | 8.22454 | 31666 ft | 378 kts | 208° |
| 2026-05-07 18:46 | 44.12692 | 8.21109 | 31143 ft | 376 kts | 208° |
| 2026-05-07 18:46 | 44.10272 | 8.19774 | 30625 ft | 372 kts | 209° |
| 2026-05-07 18:46 | 44.07873 | 8.18451 | 30121 ft | 369 kts | 209° |
| 2026-05-07 18:47 | 44.05495 | 8.17141 | 29558 ft | 366 kts | 209° |
| 2026-05-07 18:47 | 44.03142 | 8.15844 | 29063 ft | 361 kts | 209° |
| 2026-05-07 18:47 | 44.00820 | 8.14566 | 28583 ft | 357 kts | 208° |
| 2026-05-07 18:47 | 43.98521 | 8.13305 | 28118 ft | 354 kts | 208° |
| 2026-05-07 18:48 | 43.96233 | 8.12056 | 27651 ft | 351 kts | 207° |
| 2026-05-07 18:48 | 43.93963 | 8.10818 | 27202 ft | 350 kts | 207° |
| 2026-05-07 18:48 | 43.91712 | 8.09589 | 26764 ft | 347 kts | 207° |
| 2026-05-07 18:48 | 43.89475 | 8.08367 | 26334 ft | 344 kts | 207° |
| 2026-05-07 18:49 | 43.87280 | 8.07171 | 25907 ft | 342 kts | 206° |
| 2026-05-07 18:49 | 43.85074 | 8.05969 | 25467 ft | 339 kts | 206° |
| 2026-05-07 18:49 | 43.82886 | 8.04776 | 25050 ft | 337 kts | 206° |
| 2026-05-07 18:49 | 43.80710 | 8.03589 | 24618 ft | 335 kts | 206° |
| 2026-05-07 18:50 | 43.78554 | 8.02414 | 24191 ft | 333 kts | 205° |
| 2026-05-07 18:50 | 43.76407 | 8.01243 | 23745 ft | 331 kts | 205° |
| 2026-05-07 18:50 | 43.74265 | 8.00075 | 23257 ft | 330 kts | 205° |
| 2026-05-07 18:50 | 43.72131 | 7.98920 | 22811 ft | 327 kts | 204° |
| 2026-05-07 18:51 | 43.70021 | 7.97780 | 22373 ft | 325 kts | 204° |
| 2026-05-07 18:51 | 43.67923 | 7.96643 | 21943 ft | 323 kts | 204° |
| 2026-05-07 18:51 | 43.65841 | 7.95511 | 21516 ft | 321 kts | 204° |
| 2026-05-07 18:51 | 43.63766 | 7.94388 | 21091 ft | 319 kts | 204° |
| 2026-05-07 18:52 | 43.61701 | 7.93275 | 20665 ft | 318 kts | 204° |
| 2026-05-07 18:52 | 43.59640 | 7.92165 | 20242 ft | 318 kts | 203° |
| 2026-05-07 18:52 | 43.57582 | 7.91059 | 19821 ft | 317 kts | 203° |
| 2026-05-07 18:52 | 43.55593 | 7.89738 | 19241 ft | 322 kts | 218° |
| 2026-05-07 18:53 | 43.54023 | 7.87526 | 18626 ft | 326 kts | 232° |
| 2026-05-07 18:53 | 43.52635 | 7.85041 | 18105 ft | 328 kts | 233° |
| 2026-05-07 18:53 | 43.51282 | 7.82573 | 17619 ft | 327 kts | 233° |
| 2026-05-07 18:53 | 43.49919 | 7.80070 | 17166 ft | 326 kts | 233° |
| 2026-05-07 18:54 | 43.48568 | 7.77579 | 16738 ft | 324 kts | 233° |
| 2026-05-07 18:54 | 43.47224 | 7.75091 | 16315 ft | 323 kts | 233° |
| 2026-05-07 18:54 | 43.45892 | 7.72614 | 15899 ft | 321 kts | 233° |
| 2026-05-07 18:54 | 43.44569 | 7.70147 | 15498 ft | 320 kts | 233° |
| 2026-05-07 18:55 | 43.43258 | 7.67691 | 15102 ft | 318 kts | 233° |
| 2026-05-07 18:55 | 43.41936 | 7.65209 | 14321 ft | 328 kts | 233° |
| 2026-05-07 18:55 | 43.40569 | 7.62624 | 13203 ft | 341 kts | 233° |
| 2026-05-07 18:55 | 43.39149 | 7.59938 | 11930 ft | 354 kts | 233° |
| 2026-05-07 18:56 | 43.37670 | 7.57158 | 10696 ft | 365 kts | 233° |
| 2026-05-07 18:56 | 43.36215 | 7.54420 | 10486 ft | 344 kts | 233° |
| 2026-05-07 18:56 | 43.34847 | 7.51846 | 10352 ft | 323 kts | 233° |
| 2026-05-07 18:56 | 43.33564 | 7.49426 | 10241 ft | 305 kts | 233° |
| 2026-05-07 18:57 | 43.32351 | 7.47129 | 10053 ft | 291 kts | 233° |
| 2026-05-07 18:57 | 43.31174 | 7.44908 | 9634 ft | 286 kts | 233° |
| 2026-05-07 18:57 | 43.30020 | 7.42738 | 9136 ft | 284 kts | 233° |
| 2026-05-07 18:57 | 43.28996 | 7.40395 | 8573 ft | 284 kts | 249° |
| 2026-05-07 18:58 | 43.28679 | 7.37736 | 8002 ft | 285 kts | 273° |
| 2026-05-07 18:58 | 43.29168 | 7.35128 | 7466 ft | 284 kts | 296° |
| 2026-05-07 18:58 | 43.30372 | 7.32990 | 6812 ft | 287 kts | 319° |
| 2026-05-07 18:58 | 43.31972 | 7.31307 | 6111 ft | 292 kts | 323° |
| 2026-05-07 18:59 | 43.33591 | 7.29632 | 5524 ft | 290 kts | 322° |
| 2026-05-07 18:59 | 43.35170 | 7.27986 | 4987 ft | 286 kts | 322° |
| 2026-05-07 18:59 | 43.36741 | 7.26337 | 4522 ft | 281 kts | 322° |
| 2026-05-07 18:59 | 43.38235 | 7.24766 | 4450 ft | 260 kts | 322° |
| 2026-05-07 19:00 | 43.39619 | 7.23312 | 4381 ft | 241 kts | 322° |
| 2026-05-07 19:00 | 43.40897 | 7.21967 | 4333 ft | 224 kts | 322° |
| 2026-05-07 19:00 | 43.42120 | 7.20677 | 4271 ft | 221 kts | 322° |
| 2026-05-07 19:00 | 43.43331 | 7.19401 | 4189 ft | 215 kts | 322° |
| 2026-05-07 19:01 | 43.44494 | 7.18178 | 4105 ft | 205 kts | 322° |
| 2026-05-07 19:01 | 43.45622 | 7.17032 | 4016 ft | 199 kts | 329° |
| 2026-05-07 19:01 | 43.46895 | 7.16332 | 3915 ft | 199 kts | 348° |
| 2026-05-07 19:01 | 43.48282 | 7.16138 | 3594 ft | 202 kts | 356° |
| 2026-05-07 19:02 | 43.49695 | 7.16008 | 3290 ft | 205 kts | 356° |
| 2026-05-07 19:02 | 43.51125 | 7.15873 | 2985 ft | 207 kts | 356° |
| 2026-05-07 19:02 | 43.52559 | 7.15735 | 2707 ft | 207 kts | 356° |
| 2026-05-07 19:02 | 43.53994 | 7.15597 | 2434 ft | 207 kts | 356° |
| 2026-05-07 19:03 | 43.55392 | 7.15459 | 2154 ft | 201 kts | 356° |
| 2026-05-07 19:03 | 43.56761 | 7.15337 | 1865 ft | 194 kts | 358° |
| 2026-05-07 19:03 | 43.58081 | 7.15246 | 1663 ft | 182 kts | 359° |
| 2026-05-07 19:03 | 43.59305 | 7.15185 | 1437 ft | 173 kts | 359° |
| 2026-05-07 19:04 | 43.60494 | 7.15170 | 1129 ft | 167 kts | 2° |
| 2026-05-07 19:04 | 43.61568 | 7.15470 | 979 ft | 152 kts | 26° |
| 2026-05-07 19:04 | 43.62366 | 7.16336 | 772 ft | 142 kts | 46° |
| 2026-05-07 19:04 | 43.63007 | 7.17350 | 579 ft | 139 kts | 46° |
| 2026-05-07 19:05 | 43.63671 | 7.18295 | 453 ft | 137 kts | 49° |
| 2026-05-07 19:05 | 43.64344 | 7.19226 | 293 ft | 137 kts | 47° |
| 2026-05-07 19:05 | 43.65010 | 7.20161 | 134 ft | 137 kts | 47° |
| 2026-05-07 19:05 | 43.65666 | 7.21076 | 23 ft | 127 kts | 46° |
| 2026-05-07 19:06 | 43.66170 | 7.21763 | 21 ft | 68 kts | 45° |
| 2026-05-07 19:06 | 43.66473 | 7.22040 | 21 ft | 3 kts | 20° |
| 2026-05-07 19:06 | 43.66498 | 7.22053 | 22 ft | 5 kts | 20° |
| 2026-05-07 19:07 | 43.66522 | 7.22060 | 21 ft | 5 kts | 1° |
| 2026-05-07 19:07 | 43.66536 | 7.22046 | 23 ft | 0 kts | 314° |
| 2026-05-07 19:08 | 43.66541 | 7.22040 | 22 ft | 4 kts | 314° |
| 2026-05-07 19:08 | 43.66593 | 7.21971 | 21 ft | 16 kts | 315° |
| 2026-05-07 19:09 | 43.66647 | 7.21867 | 21 ft | 11 kts | 266° |
| 2026-05-07 19:09 | 43.66595 | 7.21786 | 21 ft | 12 kts | 224° |
| 2026-05-07 19:09 | 43.66535 | 7.21703 | 21 ft | 13 kts | 225° |
| 2026-05-07 19:09 | 43.66478 | 7.21624 | 21 ft | 0 kts | 225° |
| 2026-05-07 19:10 | 43.66475 | 7.21619 | 21 ft | 0 kts | 225° |
| 2026-05-07 19:10 | 43.66474 | 7.21618 | 21 ft | 1 kts | 225° |
| 2026-05-07 19:10 | 43.66469 | 7.21596 | 21 ft | 3 kts | 271° |
| 2026-05-07 19:11 | 43.66480 | 7.21569 | 23 ft | 4 kts | 309° |
| 2026-05-07 19:11 | 43.66502 | 7.21538 | 21 ft | 4 kts | 315° |
| 2026-05-07 19:11 | 43.66506 | 7.21532 | 21 ft | 1 kts | 315° |